Time;durP1;ratioP1;P1;durP2;ratioP2;P2;SDS_P1;SDS_P2;PMS_P1;PMS_P2;Temp;Humidity;BMP_temperature;BMP_pressure;BME280_temperature;BME280_humidity;BME280_pressure;Samples;Min_cycle;Max_cycle;Signal;HPM_P1;HPM_P2
2022/05/25 00:02:21;;;;;;;1.85;0.60;;;;;;;12.83;71.71;101279.19;5013278;28;96743;-34
2022/05/25 00:04:47;;;;;;;3.13;0.60;;;;;;;12.79;71.80;101277.63;4995391;28;96726;-34
2022/05/25 00:07:13;;;;;;;1.48;0.57;;;;;;;12.76;72.40;101278.69;5013417;28;97990;-34
2022/05/25 00:09:39;;;;;;;0.80;0.43;;;;;;;12.78;72.07;101281.31;4994863;28;100804;-34
2022/05/25 00:12:06;;;;;;;0.47;0.20;;;;;;;12.80;71.90;101284.78;5013318;28;98041;-34
2022/05/25 00:14:32;;;;;;;2.80;0.57;;;;;;;12.66;72.13;101278.41;4995546;28;97008;-34
2022/05/25 00:16:58;;;;;;;0.55;0.45;;;;;;;12.77;72.36;101293.16;5013240;28;97292;-34
2022/05/25 00:22:07;;;;;;;0.75;0.40;;;;;;;12.70;71.87;101279.97;5012619;28;96547;-34
2022/05/25 00:24:32;;;;;;;1.38;0.60;;;;;;;12.72;73.16;101294.31;5012453;28;117233;-34
2022/05/25 00:26:58;;;;;;;0.60;0.40;;;;;;;12.67;72.61;101282.00;5012710;28;99442;-34
2022/05/25 00:29:23;;;;;;;2.38;0.60;;;;;;;12.64;72.19;101287.63;5012705;28;102944;-34
2022/05/25 00:31:48;;;;;;;1.65;0.60;;;;;;;12.72;71.91;101288.88;5013477;28;96467;-34
2022/05/25 00:34:14;;;;;;;0.60;0.47;;;;;;;12.74;72.06;101297.81;5013065;28;96901;-34
2022/05/25 00:36:40;;;;;;;1.60;0.52;;;;;;;12.69;72.32;101288.22;5012838;28;98237;-34
2022/05/25 00:39:05;;;;;;;0.82;0.35;;;;;;;12.62;73.43;101275.97;5012795;28;98765;-34
2022/05/25 00:41:31;;;;;;;0.80;0.52;;;;;;;12.65;72.64;101286.66;5013032;28;96573;-34
2022/05/25 00:43:58;;;;;;;0.98;0.70;;;;;;;12.66;74.33;101294.72;4994889;28;96806;-34
2022/05/25 00:46:25;;;;;;;0.52;0.47;;;;;;;12.63;72.95;101297.63;4994033;28;100797;-34
2022/05/25 00:48:51;;;;;;;0.73;0.60;;;;;;;12.59;73.08;101296.06;4994464;28;100873;-34
2022/05/25 00:51:47;;;;;;;1.85;0.75;;;;;;;12.58;73.95;101309.75;5012411;28;101757;-34
2022/05/25 00:54:26;;;;;;;1.00;0.60;;;;;;;12.47;74.59;101300.44;5006064;28;96838;-34
2022/05/25 00:56:55;;;;;;;0.77;0.60;;;;;;;12.53;73.53;101305.47;5012670;28;97278;-34
2022/05/25 00:59:26;;;;;;;1.23;0.52;;;;;;;12.52;73.81;101309.16;4994332;28;100553;-34
2022/05/25 01:01:52;;;;;;;4.53;0.70;;;;;;;12.51;73.61;101310.16;4994649;28;96710;-34
2022/05/25 01:04:17;;;;;;;1.15;0.80;;;;;;;12.49;73.08;101303.06;4994347;28;96755;-33
2022/05/25 01:06:49;;;;;;;1.92;0.90;;;;;;;12.58;73.57;101317.91;5012326;28;99648;-34
2022/05/25 01:09:36;;;;;;;3.40;1.15;;;;;;;12.52;73.77;101306.44;5011045;28;100679;-34
2022/05/25 01:12:10;;;;;;;3.10;0.98;;;;;;;12.54;73.47;101323.53;5011542;28;100562;-34
2022/05/25 01:15:07;;;;;;;2.03;0.90;;;;;;;12.55;73.83;101318.97;5010935;28;97080;-34
2022/05/25 01:17:57;;;;;;;2.55;0.68;;;;;;;12.48;73.79;101302.16;5012234;28;98930;-34
2022/05/25 01:20:44;;;;;;;1.08;0.70;;;;;;;12.52;73.59;101308.28;5012263;28;98327;-34
2022/05/25 01:23:44;;;;;;;3.10;0.90;;;;;;;12.52;74.39;101314.59;4994289;28;96765;-34
2022/05/25 01:26:31;;;;;;;2.15;1.23;;;;;;;12.50;73.99;101321.97;4994024;28;96738;-34
2022/05/25 01:29:15;;;;;;;2.60;1.50;;;;;;;12.51;73.75;101320.13;4993848;28;101032;-34
2022/05/25 01:31:47;;;;;;;5.22;1.33;;;;;;;12.43;73.85;101312.44;4994374;28;100983;-33
2022/05/25 01:34:31;;;;;;;1.70;0.93;;;;;;;12.40;73.88;101314.50;4994224;28;96669;-34
2022/05/25 01:37:14;;;;;;;2.22;1.17;;;;;;;12.43;74.63;101323.31;5010838;28;96599;-34
2022/05/25 01:39:45;;;;;;;2.03;1.27;;;;;;;12.36;74.99;101313.78;5011504;28;97953;-34
2022/05/25 01:42:18;;;;;;;4.05;1.35;;;;;;;12.38;74.11;101317.28;4993780;28;100860;-34
2022/05/25 01:44:52;;;;;;;1.70;1.05;;;;;;;12.36;74.54;101323.78;5010150;28;107403;-34
2022/05/25 01:47:20;;;;;;;1.83;1.50;;;;;;;12.28;74.61;101321.56;4993928;28;96742;-34
2022/05/25 01:49:52;;;;;;;2.70;1.63;;;;;;;12.25;74.51;101316.28;4993610;28;101201;-34
2022/05/25 01:52:22;;;;;;;7.13;1.38;;;;;;;12.24;75.97;101319.97;4996325;28;100792;-34
2022/05/25 01:54:55;;;;;;;3.55;1.58;;;;;;;12.29;74.51;101329.59;4997388;28;96561;-34
2022/05/25 01:57:25;;;;;;;3.05;1.42;;;;;;;12.27;74.69;101317.94;4997831;28;96809;-34
2022/05/25 01:59:51;;;;;;;2.38;1.20;;;;;;;12.32;74.32;101326.72;4997196;28;101789;-33
2022/05/25 02:05:06;;;;;;;3.88;1.52;;;;;;;12.28;75.03;101338.72;5015445;28;96569;-34
2022/05/25 02:07:44;;;;;;;5.07;1.17;;;;;;;12.27;75.24;101339.66;4997266;28;96779;-34
2022/05/25 02:10:25;;;;;;;3.38;1.52;;;;;;;12.26;75.24;101335.22;5015065;28;99209;-34
2022/05/25 02:13:06;;;;;;;4.47;1.40;;;;;;;12.19;75.29;101324.81;4996940;28;100624;-34
2022/05/25 02:15:49;;;;;;;2.60;1.42;;;;;;;12.26;75.37;101332.50;5015219;28;96701;-34
2022/05/25 02:18:36;;;;;;;4.97;1.35;;;;;;;12.20;75.97;101335.56;5015353;28;96687;-33
2022/05/25 02:21:20;;;;;;;2.63;1.40;;;;;;;12.25;75.25;101338.91;4997000;28;100676;-34
2022/05/25 02:24:09;;;;;;;2.03;1.45;;;;;;;12.26;75.03;101340.66;4997293;28;101229;-34
2022/05/25 02:26:57;;;;;;;2.10;1.25;;;;;;;12.24;74.60;101345.28;5014548;28;96822;-34
2022/05/25 02:29:45;;;;;;;2.42;1.55;;;;;;;12.21;76.33;101340.06;4996745;28;96728;-34
2022/05/25 02:32:40;;;;;;;4.95;1.65;;;;;;;12.18;76.94;101348.41;5014302;28;98964;-33
2022/05/25 02:35:07;;;;;;;3.10;1.48;;;;;;;12.14;75.24;101348.69;5014986;28;97806;-33
2022/05/25 02:37:34;;;;;;;2.72;1.40;;;;;;;12.11;75.25;101339.75;5014991;28;96621;-34
2022/05/25 02:40:02;;;;;;;3.55;1.80;;;;;;;12.03;75.71;101335.72;4996797;28;96822;-34
2022/05/25 02:42:28;;;;;;;4.82;1.60;;;;;;;12.02;75.40;101329.44;4996496;28;102499;-34
2022/05/25 02:44:53;;;;;;;4.68;1.50;;;;;;;12.03;75.62;101349.31;5014513;28;99289;-34
2022/05/25 02:47:19;;;;;;;4.13;1.92;;;;;;;12.07;75.44;101350.88;5014452;28;96662;-34
2022/05/25 02:49:44;;;;;;;8.70;2.15;;;;;;;12.00;76.84;101339.50;5030765;28;96681;-34
2022/05/25 02:52:11;;;;;;;5.80;2.15;;;;;;;12.01;76.82;101349.41;5014718;28;98001;-34
2022/05/25 02:54:37;;;;;;;3.90;1.67;;;;;;;12.00;77.23;101352.22;4996196;28;100312;-34
2022/05/25 02:57:04;;;;;;;3.00;1.65;;;;;;;11.98;76.18;101359.56;4996087;28;97072;-34
2022/05/25 02:59:29;;;;;;;5.47;1.52;;;;;;;11.92;76.34;101352.69;4996422;28;97638;-34
2022/05/25 03:01:54;;;;;;;5.53;1.88;;;;;;;11.95;76.04;101363.34;5013248;28;127352;-34
2022/05/25 03:04:20;;;;;;;3.75;1.80;;;;;;;11.95;76.92;101354.34;5012956;28;99159;-34
2022/05/25 03:06:46;;;;;;;4.30;1.52;;;;;;;11.96;75.64;101358.78;4996016;28;96674;-34
2022/05/25 03:09:11;;;;;;;3.22;1.98;;;;;;;11.93;75.59;101364.41;5014436;28;96770;-34
2022/05/25 03:11:37;;;;;;;4.80;1.50;;;;;;;11.88;78.31;101368.25;5014214;28;97398;-34
2022/05/25 03:14:02;;;;;;;4.25;1.88;;;;;;;11.87;76.68;101371.06;5014413;28;98837;-34
2022/05/25 03:16:29;;;;;;;3.78;2.10;;;;;;;11.88;77.53;101387.25;5014121;28;101882;-34
2022/05/25 03:18:55;;;;;;;7.28;2.00;;;;;;;11.80;78.31;101381.38;5014326;28;96736;-34
2022/05/25 03:21:21;;;;;;;6.13;2.03;;;;;;;11.83;77.51;101374.91;4995548;28;99358;-34
2022/05/25 03:23:46;;;;;;;2.55;1.67;;;;;;;11.85;78.14;101381.97;5014480;28;97175;-34
2022/05/25 03:26:12;;;;;;;4.35;2.03;;;;;;;11.82;77.46;101383.97;5014481;28;96781;-34
2022/05/25 03:28:38;;;;;;;5.82;1.83;;;;;;;11.86;77.24;101391.00;5012658;28;96880;-33
2022/05/25 03:31:04;;;;;;;5.00;1.75;;;;;;;11.85;77.21;101389.25;5013966;28;97891;-34
2022/05/25 03:33:31;;;;;;;5.85;2.20;;;;;;;11.70;77.71;101374.72;4995752;28;100928;-34
2022/05/25 03:35:56;;;;;;;5.00;2.30;;;;;;;11.76;77.61;101395.22;4995699;28;96891;-34
2022/05/25 03:38:21;;;;;;;3.35;1.88;;;;;;;11.72;78.35;101389.06;5014195;28;96879;-34
2022/05/25 03:40:47;;;;;;;5.68;2.42;;;;;;;11.77;77.44;101403.25;5013907;28;97951;-34
2022/05/25 03:43:16;;;;;;;6.65;1.88;;;;;;;11.72;78.16;101388.19;4995571;28;101071;-34
2022/05/25 03:45:42;;;;;;;4.07;1.77;;;;;;;11.71;78.95;101391.91;5013201;28;96601;-34
2022/05/25 03:48:08;;;;;;;2.90;1.83;;;;;;;11.65;77.82;101398.53;5013786;28;96726;-34
2022/05/25 03:50:35;;;;;;;4.57;2.15;;;;;;;11.66;79.39;101403.00;5013585;28;98154;-34
2022/05/25 03:53:00;;;;;;;4.45;2.17;;;;;;;11.62;78.49;101394.16;4995523;28;100939;-34
2022/05/25 03:55:26;;;;;;;5.30;2.35;;;;;;;11.59;78.60;101390.75;5013646;28;96587;-34
2022/05/25 03:57:51;;;;;;;4.13;2.15;;;;;;;11.59;78.58;101388.91;5013553;28;96996;-33
2022/05/25 04:00:17;;;;;;;3.92;2.40;;;;;;;11.57;79.30;101389.97;5013853;28;97350;-34
2022/05/25 04:02:44;;;;;;;4.85;2.47;;;;;;;11.61;78.94;101400.56;5013203;28;98909;-34
2022/05/25 04:05:10;;;;;;;2.85;1.63;;;;;;;11.54;79.74;101396.44;4995073;28;96697;-34
2022/05/25 04:07:39;;;;;;;6.75;2.33;;;;;;;11.59;78.22;101393.47;5013305;28;96856;-34
2022/05/25 04:10:16;;;;;;;3.25;1.60;;;;;;;11.60;78.82;101392.50;4994675;28;100949;-33
2022/05/25 04:12:43;;;;;;;3.22;2.03;;;;;;;11.63;78.34;101403.16;4994987;28;100873;-34
2022/05/25 04:15:13;;;;;;;3.53;2.05;;;;;;;11.70;78.51;101407.28;4994622;28;96758;-33
2022/05/25 04:17:38;;;;;;;3.67;1.65;;;;;;;11.66;78.41;101411.16;4995028;28;96841;-34
2022/05/25 04:20:05;;;;;;;4.10;2.17;;;;;;;11.66;79.04;101411.16;4994672;28;114167;-34
2022/05/25 04:22:32;;;;;;;2.78;1.63;;;;;;;11.62;78.13;101404.13;5012978;28;99528;-34
2022/05/25 04:24:59;;;;;;;2.40;1.63;;;;;;;11.70;78.41;101410.00;4994979;28;96767;-34
2022/05/25 04:27:25;;;;;;;6.93;1.80;;;;;;;11.73;79.09;101404.41;4995323;28;96818;-34
2022/05/25 04:29:51;;;;;;;4.55;2.53;;;;;;;11.68;78.35;101406.53;4994964;28;101041;-34
2022/05/25 04:32:16;;;;;;;4.68;2.60;;;;;;;11.70;78.48;101404.56;5012837;28;98378;-34
2022/05/25 04:34:42;;;;;;;9.77;1.90;;;;;;;11.61;79.81;101403.28;5012387;28;96506;-34
2022/05/25 04:39:51;;;;;;;4.50;2.28;;;;;;;11.66;78.31;101411.16;5013382;28;97085;-33
2022/05/25 04:42:16;;;;;;;4.55;1.75;;;;;;;11.69;78.46;101408.25;5012906;28;97182;-34
2022/05/25 04:44:41;;;;;;;3.95;2.33;;;;;;;11.63;78.73;101395.03;5012653;28;96720;-34
2022/05/25 04:47:08;;;;;;;4.90;2.38;;;;;;;11.69;77.58;101400.97;5011370;28;96911;-34
2022/05/25 04:49:34;;;;;;;5.88;2.53;;;;;;;11.73;79.10;101404.41;4994492;28;101188;-34
2022/05/25 04:51:59;;;;;;;4.68;2.45;;;;;;;11.73;78.28;101406.22;5012810;28;98995;-34
2022/05/25 04:54:25;;;;;;;6.10;2.25;;;;;;;11.73;80.25;101406.22;5012897;28;96515;-34
2022/05/25 04:59:58;;;;;;;3.53;1.98;;;;;;;11.80;79.79;101413.09;4930201;28;99184;-33
2022/05/25 05:02:24;;;;;;;3.97;2.13;;;;;;;11.81;78.99;101406.69;4932617;28;100748;-33
2022/05/25 05:04:50;;;;;;;4.35;2.35;;;;;;;11.75;79.63;101386.19;4973861;28;96731;-34
2022/05/25 05:07:15;;;;;;;4.65;2.13;;;;;;;11.82;79.45;101386.69;5012024;28;112261;-34
2022/05/25 05:09:42;;;;;;;3.60;1.90;;;;;;;11.80;79.65;101388.66;5012350;28;97985;-34
2022/05/25 05:12:09;;;;;;;6.22;2.25;;;;;;;11.78;81.02;101393.28;4994041;28;101436;-34
2022/05/25 05:14:34;;;;;;;5.63;2.28;;;;;;;11.86;80.09;101400.00;4994251;28;96496;-33
2022/05/25 05:17:03;;;;;;;8.23;2.92;;;;;;;11.89;80.10;101396.25;5011419;28;96870;-34
2022/05/25 05:19:29;;;;;;;7.55;2.53;;;;;;;11.97;80.93;101410.28;4994138;28;101151;-34
2022/05/25 05:21:57;;;;;;;4.25;2.45;;;;;;;11.94;80.66;101393.28;5012014;28;98990;-34
2022/05/25 05:24:22;;;;;;;6.97;2.28;;;;;;;12.03;79.89;101390.91;5011706;28;96517;-34
2022/05/25 05:26:48;;;;;;;5.20;2.70;;;;;;;12.20;80.72;101411.63;5010895;28;98017;-33
2022/05/25 05:29:13;;;;;;;6.80;2.85;;;;;;;12.18;78.74;101408.16;5011567;28;118725;-34
2022/05/25 05:31:38;;;;;;;5.05;2.08;;;;;;;12.22;79.94;101406.97;5012133;28;98210;-34
2022/05/25 05:34:04;;;;;;;5.90;3.03;;;;;;;12.25;80.15;101405.91;5011591;28;107872;-34
2022/05/25 05:36:43;;;;;;;4.47;2.78;;;;;;;12.28;78.70;101408.47;4994073;28;96821;-34
2022/05/25 05:39:12;;;;;;;6.35;3.05;;;;;;;12.30;80.86;101428.28;4993979;28;101182;-34
2022/05/25 05:41:50;;;;;;;5.40;3.20;;;;;;;12.27;78.72;101415.72;4994145;28;101173;-34
2022/05/25 05:44:22;;;;;;;10.85;3.17;;;;;;;12.32;79.11;101427.22;5010774;28;96612;-34
2022/05/25 05:46:49;;;;;;;6.17;3.33;;;;;;;12.35;80.01;101422.53;4993941;28;96756;-34
2022/05/25 05:49:15;;;;;;;10.63;4.22;;;;;;;12.36;79.38;101418.88;5009640;28;101131;-34
2022/05/25 05:51:41;;;;;;;8.57;3.92;;;;;;;12.35;80.51;101409.84;5011986;28;97793;-34
2022/05/25 05:54:07;;;;;;;11.43;4.38;;;;;;;12.31;78.90;101409.16;5011766;28;96820;-34
2022/05/25 05:56:33;;;;;;;12.07;4.75;;;;;;;12.38;80.03;101430.53;5011955;28;96764;-34
2022/05/25 05:58:59;;;;;;;9.88;4.32;;;;;;;12.42;79.39;101435.69;5011706;28;98260;-34
2022/05/25 06:01:25;;;;;;;10.57;4.13;;;;;;;12.39;79.87;101410.53;4993470;28;100953;-34
2022/05/25 06:03:50;;;;;;;8.40;4.40;;;;;;;12.45;79.59;101430.06;5011492;28;96765;-34
2022/05/25 06:06:16;;;;;;;9.70;4.65;;;;;;;12.50;79.03;101427.94;5010695;28;121580;-33
2022/05/25 06:08:46;;;;;;;14.18;5.82;;;;;;;12.56;78.67;101426.72;5010062;28;100803;-34
2022/05/25 06:11:15;;;;;;;11.40;5.20;;;;;;;12.60;78.50;101430.97;5010087;28;99596;-34
2022/05/25 06:13:40;;;;;;;10.95;4.30;;;;;;;12.53;79.47;101418.72;5010422;28;96570;-33
2022/05/25 06:21:34;;;;;;;10.23;4.80;;;;;;;12.72;79.69;101434.78;5011583;28;97038;-34
2022/05/25 06:23:59;;;;;;;11.13;5.43;;;;;;;12.78;79.41;101444.44;5011468;28;96784;-34
2022/05/25 06:26:27;;;;;;;10.05;4.63;;;;;;;12.74;79.41;101438.28;5011237;28;96864;-33
2022/05/25 06:28:53;;;;;;;10.27;3.88;;;;;;;12.90;78.69;101446.38;5010611;28;99135;-34
2022/05/25 06:31:19;;;;;;;12.05;4.85;;;;;;;12.80;79.13;101447.91;5011086;28;97878;-34
2022/05/25 06:33:45;;;;;;;12.98;5.43;;;;;;;12.77;79.26;101437.22;5010896;28;96697;-33
2022/05/25 06:36:16;;;;;;;9.10;4.93;;;;;;;12.86;79.21;101452.97;5010897;28;96864;-33
2022/05/25 06:38:42;;;;;;;8.07;4.32;;;;;;;12.90;79.72;101441.81;5012101;28;104019;-33
2022/05/25 06:41:08;;;;;;;9.18;4.97;;;;;;;12.93;79.74;101446.19;4996517;28;101216;-33
2022/05/25 06:43:33;;;;;;;12.88;5.78;;;;;;;13.03;79.30;101460.97;5014681;28;96619;-33
2022/05/25 06:45:58;;;;;;;13.18;5.13;;;;;;;13.12;79.01;101468.56;5014775;28;97586;-33
2022/05/25 06:48:24;;;;;;;12.07;4.68;;;;;;;13.18;78.67;101472.75;5014524;28;104165;-33
2022/05/25 06:50:49;;;;;;;10.82;5.25;;;;;;;13.11;78.46;101458.66;5014046;28;112207;-33
2022/05/25 06:53:14;;;;;;;8.82;4.63;;;;;;;13.17;78.78;101465.53;4996342;28;102324;-33
2022/05/25 06:55:40;;;;;;;9.07;4.47;;;;;;;13.22;78.32;101470.69;5014169;28;119278;-34
2022/05/25 06:58:05;;;;;;;10.52;5.15;;;;;;;13.31;79.12;101472.88;5014028;28;107548;-33
2022/05/25 07:00:30;;;;;;;9.45;5.50;;;;;;;13.27;78.98;101454.97;5013404;28;126696;-33
2022/05/25 07:02:55;;;;;;;10.77;5.50;;;;;;;13.29;78.86;101472.97;5012791;28;121398;-33
2022/05/25 07:05:21;;;;;;;14.10;5.53;;;;;;;13.43;78.16;101468.50;5014590;28;96851;-33
2022/05/25 07:07:46;;;;;;;12.80;5.95;;;;;;;13.63;78.14;101481.69;4995595;28;123552;-33
2022/05/25 07:10:11;;;;;;;9.95;5.70;;;;;;;13.73;77.91;101482.88;5013986;28;112694;-33
2022/05/25 07:12:37;;;;;;;9.20;5.40;;;;;;;13.78;77.40;101490.75;4995179;28;123718;-33
2022/05/25 07:15:03;;;;;;;9.35;5.43;;;;;;;13.85;77.40;101488.47;5014252;28;96802;-33
2022/05/25 07:17:28;;;;;;;11.45;5.40;;;;;;;13.76;77.60;101479.06;4995778;28;102915;-33
2022/05/25 07:19:54;;;;;;;6.50;3.75;;;;;;;13.82;77.24;101484.09;5014599;28;97861;-33
2022/05/25 07:22:19;;;;;;;8.27;4.63;;;;;;;13.94;76.30;101491.50;5014233;28;96686;-33
2022/05/25 07:24:45;;;;;;;14.10;6.18;;;;;;;14.07;75.88;101491.56;5014361;28;96658;-33
2022/05/25 07:27:10;;;;;;;10.85;5.78;;;;;;;14.19;76.26;101493.47;5013059;28;98112;-33
2022/05/25 07:29:35;;;;;;;10.88;6.22;;;;;;;14.38;75.86;101492.25;5013240;28;116563;-33
2022/05/25 07:32:04;;;;;;;9.20;5.60;;;;;;;14.54;74.88;101490.25;5013796;28;103606;-33
2022/05/25 07:34:39;;;;;;;11.00;4.93;;;;;;;14.59;74.64;101482.66;4995889;28;96839;-33
2022/05/25 07:37:11;;;;;;;13.88;5.13;;;;;;;14.79;73.85;101496.75;4995825;28;103685;-33
2022/05/25 07:39:43;;;;;;;9.45;4.03;;;;;;;14.89;72.82;101489.66;4995343;28;100272;-33
2022/05/25 07:42:11;;;;;;;;;;;;;;;14.98;73.53;101494.50;4996474;28;96626;-33
2022/05/25 07:44:45;;;;;;;10.13;5.05;;;;;;;15.05;72.84;101498.53;5013061;28;96832;-33
2022/05/25 07:47:12;;;;;;;6.22;3.85;;;;;;;15.10;72.03;101494.63;4995551;28;100784;-33
2022/05/25 07:49:38;;;;;;;8.20;4.55;;;;;;;14.99;71.46;101489.91;5012881;28;97913;-33
2022/05/25 07:52:03;;;;;;;16.95;5.57;;;;;;;15.16;72.25;101495.06;5013131;28;96645;-33
2022/05/25 07:54:30;;;;;;;8.93;4.60;;;;;;;15.17;70.46;101494.06;4995424;28;98333;-33
2022/05/25 07:56:55;;;;;;;8.18;3.88;;;;;;;15.22;70.35;101499.22;4995443;28;101138;-33
2022/05/25 07:59:21;;;;;;;9.13;4.72;;;;;;;15.20;71.19;101498.44;5013612;28;97753;-33
2022/05/25 08:07:30;;;;;;;10.70;4.72;;;;;;;15.53;70.34;101513.41;5013896;28;97050;-33
2022/05/25 08:10:06;;;;;;;7.45;5.05;;;;;;;15.96;70.08;101513.03;5013577;28;99576;-33
2022/05/25 08:12:34;;;;;;;9.77;4.22;;;;;;;16.20;69.08;101508.47;5013471;28;96774;-33
2022/05/25 08:15:00;;;;;;;6.88;3.90;;;;;;;16.53;68.73;101501.47;4995138;28;96709;-33
2022/05/25 08:17:26;;;;;;;5.88;3.08;;;;;;;16.74;66.07;101505.28;5012570;28;99254;-33
2022/05/25 08:19:51;;;;;;;6.47;3.55;;;;;;;16.77;67.85;101506.91;5012961;28;98719;-33
2022/05/25 08:22:16;;;;;;;4.55;3.05;;;;;;;16.52;67.17;101510.69;5013162;28;103042;-33
2022/05/25 08:24:43;;;;;;;8.93;3.10;;;;;;;16.42;66.93;101506.88;5012584;28;110323;-33
2022/05/25 08:27:08;;;;;;;6.63;2.30;;;;;;;16.25;66.81;101499.94;5013042;28;97974;-33
2022/05/25 08:29:34;;;;;;;3.95;2.35;;;;;;;16.24;66.93;101493.59;5012787;28;98729;-33
2022/05/25 08:31:59;;;;;;;5.55;2.10;;;;;;;16.50;66.43;101499.84;5013034;28;96517;-33
2022/05/25 08:34:26;;;;;;;3.70;1.80;;;;;;;16.89;65.66;101505.13;5013391;28;96715;-33
2022/05/25 08:36:52;;;;;;;2.75;1.15;;;;;;;17.06;63.04;101498.31;5011481;28;100875;-33
2022/05/25 08:39:18;;;;;;;3.33;1.88;;;;;;;17.18;61.70;101501.00;5012786;28;98747;-33
2022/05/25 08:41:45;;;;;;;6.25;1.75;;;;;;;17.40;62.64;101500.16;4994523;28;96537;-33
2022/05/25 08:44:12;;;;;;;5.32;2.00;;;;;;;17.74;62.51;101499.28;4994574;28;96913;-33
2022/05/25 08:46:38;;;;;;;4.13;1.80;;;;;;;17.62;62.35;101491.06;4994553;28;100791;-33
2022/05/25 08:49:10;;;;;;;2.85;1.27;;;;;;;17.29;59.52;101497.38;5011361;28;101034;-33
2022/05/25 08:51:43;;;;;;;3.30;1.27;;;;;;;17.24;60.55;101504.22;5011510;28;96633;-33
2022/05/25 08:54:09;;;;;;;4.18;1.90;;;;;;;17.35;61.39;101501.50;4994644;28;96915;-33
2022/05/25 08:56:44;;;;;;;4.32;1.63;;;;;;;17.46;58.57;101506.13;5012415;28;99128;-33
2022/05/25 08:59:49;;;;;;;3.13;1.88;;;;;;;17.36;60.48;101495.91;5011590;28;100970;-33
2022/05/25 09:02:36;;;;;;;4.40;1.50;;;;;;;17.26;59.91;101494.91;5012367;28;96620;-32
2022/05/25 09:05:16;;;;;;;2.38;1.02;;;;;;;17.43;59.35;101500.91;5012650;28;96576;-33
2022/05/25 09:08:02;;;;;;;1.55;0.95;;;;;;;17.66;59.81;101507.25;4993808;28;100761;-33
2022/05/25 09:10:32;;;;;;;0.98;0.73;;;;;;;17.89;54.63;101503.53;4970305;28;98310;-33
2022/05/25 09:13:08;;;;;;;5.15;0.80;;;;;;;18.18;57.04;101503.84;4994233;28;96937;-33
2022/05/25 09:18:33;;;;;;;1.83;0.85;;;;;;;18.11;56.15;101502.63;5012788;28;97112;-33
2022/05/25 09:21:04;;;;;;;1.90;0.83;;;;;;;17.91;55.14;101509.75;4994294;28;100732;-33
2022/05/25 09:23:30;;;;;;;4.55;1.13;;;;;;;17.68;58.65;101516.22;4994404;28;96770;-33
2022/05/25 09:25:56;;;;;;;2.05;1.00;;;;;;;17.76;57.31;101514.59;5012736;28;96781;-33
2022/05/25 09:28:29;;;;;;;1.05;0.57;;;;;;;18.01;57.31;101512.63;4994129;28;100773;-33
2022/05/25 09:30:57;;;;;;;3.00;1.02;;;;;;;18.11;55.68;101519.06;4993928;28;100677;-33
2022/05/25 09:33:46;;;;;;;1.20;0.70;;;;;;;18.37;54.98;101530.63;4993614;28;97091;-33
2022/05/25 09:36:21;;;;;;;2.55;0.73;;;;;;;18.50;53.77;101526.88;5010467;28;96717;-33
2022/05/25 09:38:55;;;;;;;0.85;0.30;;;;;;;18.24;52.38;101533.53;5011856;28;99160;-33
2022/05/25 09:41:25;;;;;;;7.13;0.93;;;;;;;18.38;53.94;101529.63;5010549;28;100750;-33
2022/05/25 09:43:54;;;;;;;1.80;0.80;;;;;;;18.69;53.71;101518.81;4993893;28;96578;-33
2022/05/25 09:46:34;;;;;;;4.90;1.17;;;;;;;18.52;54.19;101533.06;5010706;28;96834;-33
2022/05/25 09:49:04;;;;;;;1.98;0.60;;;;;;;18.40;54.89;101534.97;5011669;28;99411;-33
2022/05/25 09:51:41;;;;;;;2.88;0.82;;;;;;;18.28;53.79;101530.53;5012227;28;99189;-33
2022/05/25 09:54:19;;;;;;;1.08;0.70;;;;;;;18.46;54.31;101538.09;4993804;28;96614;-33
2022/05/25 09:57:04;;;;;;;1.98;0.68;;;;;;;18.60;54.88;101534.19;4977385;28;96759;-33
2022/05/25 09:59:34;;;;;;;3.05;0.93;;;;;;;18.74;54.42;101537.63;5011129;28;99724;-33
2022/05/25 10:02:00;;;;;;;2.50;0.90;;;;;;;18.57;53.80;101526.22;5011624;28;99030;-33
2022/05/25 10:04:52;;;;;;;2.60;0.77;;;;;;;18.86;53.54;101536.63;5011965;28;101068;-33
2022/05/25 10:07:42;;;;;;;4.18;1.17;;;;;;;18.90;54.14;101532.59;5032250;28;96552;-33
2022/05/25 10:10:11;;;;;;;2.55;0.77;;;;;;;18.95;55.35;101549.56;5030058;28;100886;-33
2022/05/25 10:12:39;;;;;;;3.33;0.80;;;;;;;19.40;54.87;101553.91;5031298;27;101243;-33
2022/05/25 10:15:08;;;;;;;3.05;0.98;;;;;;;19.28;52.82;101548.50;5035223;28;104812;-33
2022/05/25 10:17:38;;;;;;;3.92;0.88;;;;;;;19.00;53.76;101555.53;5034133;28;96897;-33
2022/05/25 10:20:44;;;;;;;0.80;0.50;;;;;;;19.39;52.77;101544.81;5016642;28;101235;-33
2022/05/25 10:23:25;;;;;;;2.92;1.00;;;;;;;19.32;50.62;101543.59;5035255;28;97316;-33
2022/05/25 10:25:55;;;;;;;1.33;0.32;;;;;;;19.44;52.06;101550.75;5033273;28;97337;-33
2022/05/25 10:28:24;;;;;;;2.75;0.60;;;;;;;18.95;51.00;101563.28;5016787;28;96730;-33
2022/05/25 10:36:56;;;;;;;1.48;0.43;;;;;;;19.39;49.91;101542.06;5034788;28;96701;-33
2022/05/25 10:39:27;;;;;;;1.10;0.35;;;;;;;19.58;48.66;101548.69;5016759;28;96944;-33
2022/05/25 10:42:14;;;;;;;0.93;0.10;;;;;;;19.53;48.88;101552.72;5034558;28;110808;-33
2022/05/25 10:45:03;;;;;;;1.13;0.50;;;;;;;19.40;48.19;101546.56;5035342;28;97845;-33
2022/05/25 10:47:57;;;;;;;0.95;0.38;;;;;;;19.40;47.41;101553.91;5016531;28;96650;-33
2022/05/25 10:50:22;;;;;;;0.75;0.40;;;;;;;19.46;49.17;101553.38;5033522;28;96695;-33
2022/05/25 10:52:52;;;;;;;2.35;0.80;;;;;;;19.40;50.43;101549.31;5034571;28;97321;-33
2022/05/25 10:55:18;;;;;;;1.77;0.40;;;;;;;19.47;49.13;101550.53;5034349;28;100608;-34
2022/05/25 10:58:14;;;;;;;0.93;0.52;;;;;;;19.48;48.95;101557.75;5033271;28;96473;-33
2022/05/25 11:01:10;;;;;;;1.10;0.52;;;;;;;19.58;47.83;101544.06;5034891;28;96866;-33
2022/05/25 11:03:42;;;;;;;0.80;0.38;;;;;;;19.75;48.71;101556.34;5012710;28;100715;-34
2022/05/25 11:06:25;;;;;;;3.55;0.63;;;;;;;19.92;48.63;101535.56;5014543;28;98055;-33
2022/05/25 11:09:29;;;;;;;0.30;0.17;;;;;;;19.90;46.90;101545.81;5014344;28;96598;-33
2022/05/25 11:12:25;;;;;;;1.85;0.20;;;;;;;19.77;46.01;101557.06;4982641;28;97044;-34
2022/05/25 11:15:03;;;;;;;1.40;0.25;;;;;;;19.80;48.49;101540.28;5014012;28;98913;-33
2022/05/25 11:17:57;;;;;;;0.75;0.30;;;;;;;20.18;45.75;101535.09;5013025;28;100601;-33
2022/05/25 11:20:31;;;;;;;1.45;0.38;;;;;;;20.31;46.59;101522.81;5013701;28;96674;-33
2022/05/25 11:23:09;;;;;;;1.55;0.32;;;;;;;20.40;47.23;101536.72;5029509;28;96862;-33
2022/05/25 11:25:50;;;;;;;2.58;0.50;;;;;;;20.30;46.68;101540.31;5011739;28;101383;-33
2022/05/25 11:28:25;;;;;;;0.77;0.55;;;;;;;19.94;46.44;101528.06;5013798;28;99454;-33
2022/05/25 11:31:03;;;;;;;1.63;0.70;;;;;;;19.73;48.46;101542.75;5029516;28;96942;-33
2022/05/25 11:33:34;;;;;;;2.13;0.95;;;;;;;19.50;48.99;101543.88;5029564;28;96789;-33
2022/05/25 11:36:30;;;;;;;1.58;0.60;;;;;;;19.12;48.75;101541.75;5029062;28;101099;-33
2022/05/25 11:39:09;;;;;;;1.13;0.65;;;;;;;18.80;47.91;101534.38;5014087;28;99404;-33
2022/05/25 11:41:37;;;;;;;5.45;1.05;;;;;;;18.58;50.82;101544.41;5029333;28;96572;-33
2022/05/25 11:44:23;;;;;;;0.70;0.50;;;;;;;18.39;49.42;101538.72;5029286;28;96851;-33
2022/05/25 11:46:50;;;;;;;2.55;0.63;;;;;;;18.28;50.59;101553.31;5028610;28;101141;-33
2022/05/25 11:49:27;;;;;;;1.67;0.85;;;;;;;18.43;50.49;101524.63;5012279;28;100670;-33
2022/05/25 11:52:26;;;;;;;3.17;1.08;;;;;;;18.93;50.17;101542.47;5013262;28;104610;-33
2022/05/25 11:55:25;;;;;;;3.13;0.98;;;;;;;19.07;49.84;101539.41;4993259;28;96836;-33
2022/05/25 11:58:11;;;;;;;1.63;0.77;;;;;;;19.19;49.84;101519.09;5013761;28;98130;-33
2022/05/25 12:00:53;;;;;;;1.90;0.95;;;;;;;19.46;49.83;101515.78;5013449;28;98782;-33
2022/05/25 12:03:31;;;;;;;4.28;1.15;;;;;;;19.57;49.65;101523.09;5011937;28;96593;-33
2022/05/25 12:06:15;;;;;;;1.83;0.80;;;;;;;19.47;49.70;101517.53;5013534;28;108632;-33
2022/05/25 12:08:48;;;;;;;1.92;0.98;;;;;;;19.41;50.54;101520.81;5013245;28;99309;-33
2022/05/25 12:11:32;;;;;;;1.33;0.80;;;;;;;19.29;50.89;101517.28;5013334;28;97446;-33
2022/05/25 12:14:34;;;;;;;2.67;1.02;;;;;;;19.21;50.44;101514.34;5012929;28;96632;-33